createdAt,value
2018-05-31T00:00:36.646Z,98472.98
2018-05-31T00:03:04.165Z,98483.36
2018-05-31T00:05:31.567Z,98491.18
2018-05-31T00:07:58.964Z,98489.81
2018-05-31T00:10:26.500Z,98484.63
2018-05-31T00:12:53.994Z,98486.36
2018-05-31T00:15:21.575Z,98493.94
2018-05-31T00:17:48.956Z,98489.66
2018-05-31T00:20:16.396Z,98498.87
2018-05-31T00:22:43.781Z,98490.46
2018-05-31T00:25:11.215Z,98493.53
2018-05-31T00:27:38.568Z,98499.98
2018-05-31T00:30:06.083Z,98503.56
2018-05-31T00:32:33.472Z,98509.98
2018-05-31T00:35:00.867Z,98498.44
2018-05-31T00:37:28.250Z,98494.34
2018-05-31T00:39:55.667Z,98498.58
2018-05-31T00:42:23.563Z,98491.98
2018-05-31T00:44:51.838Z,98494.38
2018-05-31T00:47:19.320Z,98485.41
2018-05-31T00:49:46.709Z,98487.87
2018-05-31T00:52:14.104Z,98481.56
2018-05-31T00:54:41.689Z,98472.70
2018-05-31T00:57:09.101Z,98477.52
2018-05-31T00:59:36.476Z,98477.59
2018-05-31T01:02:03.898Z,98482.23
2018-05-31T01:04:31.295Z,98476.87
2018-05-31T01:06:58.777Z,98477.03
2018-05-31T01:09:26.175Z,98468.09
2018-05-31T01:11:53.735Z,98468.42
2018-05-31T01:14:21.112Z,98463.80
2018-05-31T01:16:48.509Z,98471.44
2018-05-31T01:19:15.903Z,98473.42
2018-05-31T01:21:43.298Z,98467.41
2018-05-31T01:24:10.693Z,98467.83
2018-05-31T01:26:38.211Z,98459.72
2018-05-31T01:29:05.611Z,98458.61
2018-05-31T01:31:33.008Z,98457.72
2018-05-31T01:34:00.395Z,98461.48
2018-05-31T01:36:27.917Z,98461.01
2018-05-31T01:38:55.296Z,98461.02
2018-05-31T01:41:23.061Z,98459.97
2018-05-31T01:43:50.544Z,98453.49
2018-05-31T01:46:17.932Z,98452.58
2018-05-31T01:48:45.322Z,98444.46
2018-05-31T01:51:12.719Z,98437.02
2018-05-31T01:53:40.109Z,98433.13
2018-05-31T01:56:07.504Z,98434.55
2018-05-31T01:58:34.884Z,98432.88
2018-05-31T02:01:02.291Z,98438.10
2018-05-31T02:03:29.677Z,98446.66
2018-05-31T02:05:57.061Z,98442.06
2018-05-31T02:08:24.461Z,98445.16
2018-05-31T02:10:51.876Z,98445.12
2018-05-31T02:13:19.285Z,98439.61
2018-05-31T02:15:46.660Z,98443.98
2018-05-31T02:18:14.056Z,98441.38
2018-05-31T02:20:41.446Z,98437.38
2018-05-31T02:23:08.842Z,98432.98
2018-05-31T02:25:36.222Z,98429.11
2018-05-31T02:28:03.626Z,98430.42
2018-05-31T02:30:31.030Z,98435.97
2018-05-31T02:32:58.429Z,98424.95
2018-05-31T02:35:25.812Z,98425.31
2018-05-31T02:37:53.241Z,98419.98
2018-05-31T02:40:20.617Z,98417.85
2018-05-31T02:42:48.053Z,98434.77
2018-05-31T02:45:15.436Z,98447.41
2018-05-31T02:47:42.879Z,98459.93
2018-05-31T02:50:10.313Z,98460.80
2018-05-31T02:52:37.714Z,98463.97
2018-05-31T02:55:05.111Z,98463.66
2018-05-31T02:57:33.183Z,98462.98
2018-05-31T03:00:00.591Z,98459.33
2018-05-31T03:02:28.284Z,98449.05
2018-05-31T03:04:56.048Z,98448.17
2018-05-31T03:07:23.436Z,98450.80
2018-05-31T03:09:51.942Z,98454.56
2018-05-31T03:12:19.328Z,98458.09
2018-05-31T03:14:46.745Z,98461.75
2018-05-31T03:17:14.120Z,98458.45
2018-05-31T03:19:41.513Z,98454.41
2018-05-31T03:22:08.966Z,98464.42
2018-05-31T03:24:36.373Z,98470.31
2018-05-31T03:27:04.322Z,98466.97
2018-05-31T03:29:31.715Z,98458.45
2018-05-31T03:31:59.161Z,98461.73
2018-05-31T03:34:26.566Z,98469.55
2018-05-31T03:36:53.955Z,98470.09
2018-05-31T03:39:21.481Z,98470.86
2018-05-31T03:41:48.866Z,98472.84
2018-05-31T03:44:16.246Z,98474.32
2018-05-31T03:46:43.639Z,98471.42
2018-05-31T03:49:11.147Z,98466.78
2018-05-31T03:51:38.533Z,98464.42
2018-05-31T03:54:05.946Z,98473.98
2018-05-31T03:56:33.357Z,98478.21
2018-05-31T03:59:00.993Z,98462.59
2018-05-31T04:01:28.391Z,98466.00
2018-05-31T04:03:55.791Z,98459.40
2018-05-31T04:06:23.195Z,98463.29
2018-05-31T04:08:50.673Z,98463.80
2018-05-31T04:11:18.104Z,98464.89
2018-05-31T04:13:45.488Z,98461.84
2018-05-31T04:16:12.926Z,98466.80
2018-05-31T04:18:40.324Z,98464.23
2018-05-31T04:21:07.716Z,98472.98
2018-05-31T04:23:35.116Z,98472.38
2018-05-31T04:26:02.519Z,98473.62
2018-05-31T04:28:29.947Z,98474.68
2018-05-31T04:30:57.859Z,98475.12
2018-05-31T04:33:25.353Z,98480.79
2018-05-31T04:35:52.743Z,98482.80
2018-05-31T04:38:20.130Z,98475.94
2018-05-31T04:40:47.530Z,98475.97
2018-05-31T04:43:14.925Z,98472.67
2018-05-31T04:45:42.312Z,98475.31
2018-05-31T04:48:09.697Z,98478.48
2018-05-31T04:50:37.215Z,98474.52
2018-05-31T04:53:04.692Z,98476.23
2018-05-31T04:55:32.081Z,98477.61
2018-05-31T12:08:42.676Z,98500.06
2018-05-31T12:11:10.073Z,98503.81
2018-05-31T12:13:39.456Z,98504.41
2018-05-31T12:16:06.848Z,98513.61
2018-05-31T12:18:34.241Z,98512.19
2018-05-31T12:21:01.632Z,98510.13
2018-05-31T12:23:29.036Z,98505.16
2018-05-31T12:25:56.441Z,98501.59
2018-05-31T12:28:23.817Z,98504.78
2018-05-31T12:30:51.288Z,98511.94
2018-05-31T12:33:18.678Z,98510.06
2018-05-31T12:35:46.071Z,98505.33
2018-05-31T12:38:13.501Z,98499.16
2018-05-31T12:40:41.072Z,98496.48
2018-05-31T12:43:08.503Z,98495.14
2018-05-31T12:45:35.895Z,98498.73
2018-05-31T12:48:03.329Z,98490.23
2018-05-31T12:50:30.765Z,98485.77
2018-05-31T12:52:58.205Z,98493.82
2018-05-31T12:55:25.636Z,98487.32
2018-05-31T12:57:53.020Z,98498.98
2018-05-31T13:00:21.111Z,98491.42
2018-05-31T13:02:48.548Z,98491.23
2018-05-31T13:05:15.940Z,98496.30
2018-05-31T13:07:43.352Z,98490.53
2018-05-31T13:10:10.957Z,98484.83
2018-05-31T13:12:38.336Z,98488.39
2018-05-31T13:15:05.741Z,98491.28
2018-05-31T13:17:33.136Z,98484.98
2018-05-31T13:20:00.541Z,98483.70
2018-05-31T13:22:27.931Z,98479.13
2018-05-31T13:24:55.389Z,98478.58
2018-05-31T13:27:22.841Z,98466.79
2018-05-31T13:29:50.228Z,98467.61
2018-05-31T13:32:17.617Z,98474.94
2018-05-31T13:34:45.009Z,98468.11
2018-05-31T13:37:12.392Z,98462.80
2018-05-31T13:39:39.789Z,98461.97
2018-05-31T13:42:07.230Z,98461.39
2018-05-31T13:44:34.604Z,98461.33
2018-05-31T13:47:01.997Z,98461.55
2018-05-31T13:49:29.433Z,98464.20
2018-05-31T13:51:56.842Z,98463.13
2018-05-31T13:54:24.277Z,98463.45
2018-05-31T13:56:51.735Z,98462.62
2018-05-31T13:59:19.184Z,98464.86
2018-05-31T14:01:46.645Z,98470.54
2018-05-31T14:04:14.096Z,98470.72
2018-05-31T14:06:41.525Z,98472.62
2018-05-31T14:09:08.932Z,98479.59
2018-05-31T14:11:36.341Z,98471.42
2018-05-31T14:14:03.736Z,98477.01
2018-05-31T14:16:31.127Z,98478.44
2018-05-31T14:18:58.535Z,98472.73
2018-05-31T14:21:25.916Z,98481.22
2018-05-31T14:23:54.065Z,98474.21
2018-05-31T14:26:21.474Z,98478.44
2018-05-31T14:28:48.913Z,98483.02
2018-05-31T14:31:16.308Z,98485.02
2018-05-31T14:33:44.068Z,98488.74
2018-05-31T14:36:11.458Z,98480.66
2018-05-31T14:38:38.874Z,98476.62
2018-05-31T14:41:06.270Z,98475.99
2018-05-31T14:43:33.731Z,98475.88
2018-05-31T14:46:01.159Z,98478.95
2018-05-31T14:48:28.552Z,98475.88
2018-05-31T14:50:55.945Z,98470.66
2018-05-31T14:53:23.457Z,98473.74
2018-05-31T14:55:51.033Z,98472.12
2018-05-31T14:58:18.493Z,98468.59
2018-05-31T15:00:45.889Z,98461.64
2018-05-31T15:03:13.477Z,98465.38
2018-05-31T15:05:40.861Z,98464.02
2018-05-31T15:08:08.260Z,98457.19
2018-05-31T15:10:35.640Z,98443.19
2018-05-31T15:13:03.152Z,98445.65
2018-05-31T15:15:30.545Z,98450.50
2018-05-31T15:17:57.939Z,98448.42
2018-05-31T15:20:25.360Z,98449.05
2018-05-31T15:22:52.771Z,98444.49
2018-05-31T15:25:20.152Z,98441.72
2018-05-31T15:27:47.561Z,98437.80
2018-05-31T15:30:14.937Z,98439.32
2018-05-31T15:32:42.333Z,98426.85
2018-05-31T15:35:09.727Z,98419.03
2018-05-31T15:37:37.108Z,98407.41
2018-05-31T15:40:04.515Z,98412.30
2018-05-31T15:42:31.900Z,98409.64
2018-05-31T15:44:59.292Z,98420.63
2018-05-31T15:47:26.680Z,98409.95
2018-05-31T15:49:54.080Z,98413.01
2018-05-31T15:52:21.473Z,98415.74
2018-05-31T15:54:48.871Z,98416.80
2018-05-31T15:57:16.304Z,98417.20
2018-05-31T15:59:43.754Z,98412.03
2018-05-31T16:02:11.132Z,98415.16
2018-05-31T16:04:38.528Z,98413.09
2018-05-31T16:07:05.912Z,98408.56
2018-05-31T16:09:33.359Z,98417.66
2018-05-31T16:12:00.817Z,98422.71
2018-05-31T16:14:28.249Z,98413.33
2018-05-31T16:16:55.654Z,98411.48
2018-05-31T16:19:23.053Z,98408.93
2018-05-31T16:21:50.497Z,98406.20
2018-05-31T16:24:17.999Z,98407.60
2018-05-31T16:26:45.391Z,98405.73
2018-05-31T16:29:12.782Z,98405.47
2018-05-31T16:31:40.160Z,98406.73
2018-05-31T16:34:07.560Z,98406.73
2018-05-31T16:36:34.956Z,98407.31
2018-05-31T16:39:02.440Z,98412.30
2018-05-31T16:41:29.848Z,98412.17
2018-05-31T16:43:57.239Z,98410.97
2018-05-31T16:46:24.632Z,98406.91
2018-05-31T16:48:52.036Z,98405.44
2018-05-31T16:51:19.475Z,98398.75
2018-05-31T16:53:46.869Z,98395.95
2018-05-31T16:56:14.260Z,98391.39
2018-05-31T16:58:41.645Z,98389.77
2018-05-31T17:01:09.042Z,98381.15
2018-05-31T17:03:36.424Z,98374.98
2018-05-31T17:06:04.042Z,98366.17
2018-05-31T17:08:31.425Z,98364.89
2018-05-31T17:10:58.859Z,98358.45
2018-05-31T17:13:26.301Z,98359.77
2018-05-31T17:15:53.762Z,98361.75
2018-05-31T17:18:21.177Z,98368.03
2018-05-31T17:20:48.617Z,98362.55
2018-05-31T17:23:16.177Z,98366.00
2018-05-31T17:25:43.823Z,98370.09
2018-05-31T17:28:11.267Z,98372.52
2018-05-31T17:30:38.714Z,98375.51
2018-05-31T17:33:06.224Z,98378.19
2018-05-31T17:35:33.635Z,98382.74
2018-05-31T17:38:01.011Z,98391.19
2018-05-31T17:40:29.243Z,98399.00
2018-05-31T17:42:56.632Z,98406.36
2018-05-31T17:45:24.048Z,98408.87
2018-05-31T17:47:51.484Z,98414.86
2018-05-31T17:50:18.944Z,98424.33
2018-05-31T17:52:46.337Z,98433.12
2018-05-31T17:55:13.767Z,98439.94
2018-05-31T17:57:41.127Z,98437.69
2018-05-31T18:00:08.526Z,98426.08
2018-05-31T18:02:35.912Z,98418.73
2018-05-31T18:05:03.312Z,98420.73
2018-05-31T18:07:30.692Z,98415.53
2018-05-31T18:09:58.148Z,98412.34
2018-05-31T18:12:25.581Z,98416.99
2018-05-31T18:14:53.041Z,98413.24
2018-05-31T18:17:20.432Z,98407.10
2018-05-31T18:19:47.887Z,98397.41
2018-05-31T18:22:15.702Z,98396.34
2018-05-31T18:24:43.139Z,98397.09
2018-05-31T18:27:11.137Z,98407.70
2018-05-31T18:29:38.532Z,98404.44
2018-05-31T18:32:06.029Z,98411.11
2018-05-31T18:34:33.412Z,98419.92
2018-05-31T18:37:00.864Z,98427.45
2018-05-31T18:39:28.254Z,98432.34
2018-05-31T18:41:55.644Z,98434.24
2018-05-31T18:44:23.034Z,98445.48
2018-05-31T18:46:50.425Z,98455.14
2018-05-31T18:49:18.248Z,98456.76
2018-05-31T18:51:45.646Z,98467.39
2018-05-31T18:54:13.029Z,98466.88
2018-05-31T18:56:40.428Z,98469.11
2018-05-31T18:59:07.820Z,98467.91
2018-05-31T19:01:35.633Z,98464.55
2018-05-31T19:04:02.958Z,98466.73
2018-05-31T19:06:30.348Z,98471.78
2018-05-31T19:08:57.736Z,98472.23
2018-05-31T19:11:25.217Z,98472.22
2018-05-31T19:13:58.409Z,98469.85
2018-05-31T19:16:26.062Z,98463.07
2018-05-31T19:18:59.265Z,98462.73
2018-05-31T19:21:26.668Z,98460.74
2018-05-31T19:23:54.353Z,98467.28
2018-05-31T19:26:21.990Z,98463.79
2018-05-31T19:28:49.608Z,98459.44
2018-05-31T19:31:17.352Z,98455.88
2018-05-31T19:33:45.224Z,98450.86
2018-05-31T19:36:18.370Z,98442.64
2018-05-31T19:38:46.021Z,98424.50
2018-05-31T19:41:13.413Z,98423.02
2018-05-31T19:43:46.424Z,98416.11
2018-05-31T19:46:32.564Z,98413.80
2018-05-31T19:49:00.021Z,98416.36
2018-05-31T19:54:34.863Z,98427.52
2018-05-31T19:57:02.300Z,98435.52
2018-05-31T19:59:35.391Z,98438.87
2018-05-31T20:02:08.341Z,98442.70
2018-05-31T20:04:35.737Z,98438.40
2018-05-31T20:07:04.031Z,98437.05
2018-05-31T20:09:31.475Z,98439.22
2018-05-31T20:11:58.945Z,98439.42
2018-05-31T20:14:26.416Z,98456.98
2018-05-31T20:16:53.754Z,98465.78
2018-05-31T20:19:21.140Z,98464.86
2018-05-31T20:21:48.537Z,98466.72
2018-05-31T20:24:15.921Z,98474.36
2018-05-31T20:26:43.439Z,98475.08
2018-05-31T20:29:11.591Z,98467.31
2018-05-31T20:31:38.998Z,98467.05
2018-05-31T20:34:06.483Z,98464.08
2018-05-31T20:36:34.377Z,98468.77
2018-05-31T20:39:01.777Z,98468.28
2018-05-31T20:41:29.152Z,98469.70
2018-05-31T20:43:56.616Z,98465.80
2018-05-31T20:46:24.010Z,98467.98
2018-05-31T20:48:51.404Z,98465.00
2018-05-31T20:51:18.781Z,98470.45
2018-05-31T20:53:46.184Z,98470.74
2018-05-31T20:56:13.577Z,98469.83
2018-05-31T20:58:40.968Z,98456.64
2018-05-31T21:01:08.353Z,98448.47
2018-05-31T21:03:35.749Z,98438.66
2018-05-31T21:06:03.124Z,98430.00
2018-05-31T21:08:30.524Z,98418.74
2018-05-31T21:10:57.928Z,98417.48
2018-05-31T21:13:25.326Z,98417.45
2018-05-31T21:18:33.097Z,98420.78
2018-05-31T21:21:00.548Z,98421.20
2018-05-31T21:23:27.929Z,98424.30
2018-05-31T21:25:55.427Z,98434.53
2018-05-31T21:28:22.819Z,98420.63
2018-05-31T21:30:50.196Z,98408.47
2018-05-31T21:33:17.596Z,98404.83
2018-05-31T21:35:45.442Z,98403.83
2018-05-31T21:38:12.646Z,98401.96
2018-05-31T21:40:40.093Z,98401.95
2018-05-31T21:43:07.486Z,98411.53
2018-05-31T21:45:34.878Z,98420.55
2018-05-31T21:48:02.260Z,98420.55
2018-05-31T21:50:29.672Z,98403.02
2018-05-31T21:52:57.056Z,98375.42
2018-05-31T21:55:24.449Z,98346.84
2018-05-31T21:57:51.856Z,98333.53
